This is the latest recevied weather packets stored in our database for station/object OH1KK. If no packets are shown the sender has not sent any weather packets the latest 10 day(s).
| Time | Temp. | Humidity | Pressure | Rain* | Wind** | Luminosity | Snow |
|---|---|---|---|---|---|---|---|
| 1777778370 | 3.89° C | 86% | 998.6 hPa | 0 mm | - | - | - |
| 1777777455 | 3.89° C | 87% | 998.4 hPa | 0 mm | - | - | - |
| 1777776540 | 3.89° C | 89% | 998.3 hPa | 0 mm | - | - | - |
| 1777775687 | 3.89° C | 89% | 998.3 hPa | 0 mm | - | - | - |
| 1777766657 | 4.44° C | 84% | 998.3 hPa | 0 mm | - | - | - |
| 1777763972 | 6.11° C | 70% | 998.3 hPa | 0 mm | - | - | - |
| 1777761287 | 7.22° C | 76% | 997.6 hPa | 0 mm | - | - | - |
| 1777760372 | 7.78° C | 71% | 997.5 hPa | 0 mm | - | - | - |
| 1777759456 | 8.33° C | 69% | 997.5 hPa | 0 mm | - | - | - |
| 1777758542 | 8.89° C | 66% | 997.3 hPa | 0 mm | - | - | - |
| 1777757688 | 8.89° C | 64% | 997.2 hPa | 0 mm | - | - | - |
| 1777756773 | 9.44° C | 64% | 997.1 hPa | 0 mm | - | - | - |
| 1777755858 | 9.44° C | 63% | 997.2 hPa | 0 mm | - | - | - |
| 1777753173 | 10° C | 61% | 997.1 hPa | 0 mm | - | - | - |
| 1777751343 | 10.56° C | 60% | 997.1 hPa | 0 mm | - | - | - |
| 1777749574 | 11.11° C | 58% | 997.1 hPa | 0 mm | - | - | - |
| 1777748662 | 11.11° C | 58% | 997 hPa | 0 mm | - | - | - |
| 1777745974 | 12.22° C | 55% | 996.8 hPa | 0 mm | - | - | - |
| 1777745059 | 12.78° C | 54% | 996.7 hPa | 0 mm | - | - | - |
| 1777742375 | 13.33° C | 50% | 996.5 hPa | 0 mm | - | - | - |
| 1777740546 | 13.89° C | 49% | 996.8 hPa | 0 mm | - | - | - |
| 1777737862 | 14.44° C | 47% | 997 hPa | 0 mm | - | - | - |
| 1777735177 | 15° C | 45% | 996.9 hPa | 0 mm | - | - | - |
| 1777734263 | 15° C | 45% | 997.1 hPa | 0 mm | - | - | - |
| 1777733346 | 15° C | 43% | 997.2 hPa | 0 mm | - | - | - |
* Rain latest hour (hover to see other rain measurements)
** Current wind speed in m/s (hover to see current wind gust speed)